Combs, Arkansas
Current Conditions -  °F | °C
As of 6:53 AM on Saturday 25 Oct 2014 (Local Time) from KFYV Reporting Station
Clear Clear  
Wind Chill: 59°   Ceiling: Unl
Heat Index: 59°   Visibility: 10mi
Dew Point: 57°   Wind: 8mph
Humidity: 93%   Direction: 210°SSW
Pressure: 30.11"   Gusts: NA
Location:  35.83°N, 93.84°W
Report Text: KFYV 251153Z 21007KT 10SM CLR 15/14 A3011 RMK AO2 SLP188 T01500139 10150 20133 51006
Loading
Personal Weather Stations






























Interactive Weather Map
Tropical Storm Tracking
New forecast layout! Learn more

10-Day Weather Forecast

Advertisements
Track Severe Weather on mobile